sensor_id;sensor_type;location;lat;lon;timestamp;P1;durP1;ratioP1;P2;durP2;ratioP2
18574;SDS011;9417;16.484;102.872;2022-07-17T00:01:49;13.25;;;9.10;;
18574;SDS011;9417;16.484;102.872;2022-07-17T00:03:56;11.90;;;9.02;;
18574;SDS011;9417;16.484;102.872;2022-07-17T00:06:04;9.55;;;8.05;;
18574;SDS011;9417;16.484;102.872;2022-07-17T00:08:11;11.52;;;8.07;;
18574;SDS011;9417;16.484;102.872;2022-07-17T00:10:19;11.40;;;8.23;;
18574;SDS011;9417;16.484;102.872;2022-07-17T00:12:26;12.32;;;8.25;;
18574;SDS011;9417;16.484;102.872;2022-07-17T00:14:35;12.57;;;7.80;;
18574;SDS011;9417;16.484;102.872;2022-07-17T00:16:42;12.13;;;8.32;;
18574;SDS011;9417;16.484;102.872;2022-07-17T00:18:50;11.40;;;7.72;;
18574;SDS011;9417;16.484;102.872;2022-07-17T00:20:58;11.48;;;8.82;;
18574;SDS011;9417;16.484;102.872;2022-07-17T00:23:05;11.80;;;8.52;;
18574;SDS011;9417;16.484;102.872;2022-07-17T00:25:13;12.77;;;8.18;;
18574;SDS011;9417;16.484;102.872;2022-07-17T00:27:20;11.77;;;8.20;;
18574;SDS011;9417;16.484;102.872;2022-07-17T00:29:28;13.43;;;8.95;;
18574;SDS011;9417;16.484;102.872;2022-07-17T00:31:37;12.45;;;8.73;;
18574;SDS011;9417;16.484;102.872;2022-07-17T00:33:45;10.30;;;7.80;;
18574;SDS011;9417;16.484;102.872;2022-07-17T00:35:53;10.15;;;8.20;;
18574;SDS011;9417;16.484;102.872;2022-07-17T00:38:01;9.50;;;8.50;;
18574;SDS011;9417;16.484;102.872;2022-07-17T00:40:09;13.10;;;8.43;;
18574;SDS011;9417;16.484;102.872;2022-07-17T00:42:19;13.63;;;8.82;;
18574;SDS011;9417;16.484;102.872;2022-07-17T00:44:27;12.70;;;8.90;;
18574;SDS011;9417;16.484;102.872;2022-07-17T00:46:34;12.10;;;9.00;;
18574;SDS011;9417;16.484;102.872;2022-07-17T00:48:44;11.15;;;8.55;;
18574;SDS011;9417;16.484;102.872;2022-07-17T00:50:52;9.52;;;8.13;;
18574;SDS011;9417;16.484;102.872;2022-07-17T00:52:59;14.15;;;9.55;;
18574;SDS011;9417;16.484;102.872;2022-07-17T00:55:07;11.05;;;8.70;;
18574;SDS011;9417;16.484;102.872;2022-07-17T00:57:36;11.32;;;8.75;;
18574;SDS011;9417;16.484;102.872;2022-07-17T00:59:46;11.55;;;8.90;;
18574;SDS011;9417;16.484;102.872;2022-07-17T01:01:55;13.45;;;9.38;;
18574;SDS011;9417;16.484;102.872;2022-07-17T01:04:03;13.43;;;9.15;;
18574;SDS011;9417;16.484;102.872;2022-07-17T01:06:10;11.10;;;8.75;;
18574;SDS011;9417;16.484;102.872;2022-07-17T01:08:17;11.90;;;8.68;;
18574;SDS011;9417;16.484;102.872;2022-07-17T01:10:25;14.15;;;9.68;;
18574;SDS011;9417;16.484;102.872;2022-07-17T01:12:33;12.48;;;8.23;;
18574;SDS011;9417;16.484;102.872;2022-07-17T01:14:40;12.38;;;8.82;;
18574;SDS011;9417;16.484;102.872;2022-07-17T01:16:48;12.57;;;9.25;;
18574;SDS011;9417;16.484;102.872;2022-07-17T01:18:57;13.50;;;8.55;;
18574;SDS011;9417;16.484;102.872;2022-07-17T01:21:07;11.07;;;8.23;;
18574;SDS011;9417;16.484;102.872;2022-07-17T01:23:14;10.13;;;8.23;;
18574;SDS011;9417;16.484;102.872;2022-07-17T01:25:22;14.50;;;8.60;;
18574;SDS011;9417;16.484;102.872;2022-07-17T01:27:30;11.48;;;8.95;;
18574;SDS011;9417;16.484;102.872;2022-07-17T01:29:38;11.80;;;8.52;;
18574;SDS011;9417;16.484;102.872;2022-07-17T01:31:45;12.02;;;9.07;;
18574;SDS011;9417;16.484;102.872;2022-07-17T01:33:52;12.07;;;8.75;;
18574;SDS011;9417;16.484;102.872;2022-07-17T01:35:59;11.70;;;8.95;;
18574;SDS011;9417;16.484;102.872;2022-07-17T01:38:08;11.38;;;8.90;;
18574;SDS011;9417;16.484;102.872;2022-07-17T01:40:16;13.45;;;9.18;;
18574;SDS011;9417;16.484;102.872;2022-07-17T01:42:24;10.25;;;8.63;;
18574;SDS011;9417;16.484;102.872;2022-07-17T01:44:32;10.60;;;9.23;;
18574;SDS011;9417;16.484;102.872;2022-07-17T01:46:39;14.30;;;9.80;;
18574;SDS011;9417;16.484;102.872;2022-07-17T01:48:46;11.55;;;9.55;;
18574;SDS011;9417;16.484;102.872;2022-07-17T01:50:54;12.75;;;9.75;;
18574;SDS011;9417;16.484;102.872;2022-07-17T01:53:01;10.63;;;9.13;;
18574;SDS011;9417;16.484;102.872;2022-07-17T01:55:10;13.48;;;8.93;;
18574;SDS011;9417;16.484;102.872;2022-07-17T01:57:19;13.23;;;8.88;;
18574;SDS011;9417;16.484;102.872;2022-07-17T01:59:27;13.98;;;10.18;;
18574;SDS011;9417;16.484;102.872;2022-07-17T02:01:34;11.90;;;8.93;;
18574;SDS011;9417;16.484;102.872;2022-07-17T02:03:42;16.27;;;9.80;;
18574;SDS011;9417;16.484;102.872;2022-07-17T02:05:49;14.85;;;9.98;;
18574;SDS011;9417;16.484;102.872;2022-07-17T02:07:56;11.98;;;9.98;;
18574;SDS011;9417;16.484;102.872;2022-07-17T02:10:03;11.27;;;9.90;;
18574;SDS011;9417;16.484;102.872;2022-07-17T02:12:14;14.60;;;10.45;;
18574;SDS011;9417;16.484;102.872;2022-07-17T02:14:22;12.48;;;10.93;;
18574;SDS011;9417;16.484;102.872;2022-07-17T02:16:29;11.68;;;10.45;;
18574;SDS011;9417;16.484;102.872;2022-07-17T02:18:37;13.75;;;11.23;;
18574;SDS011;9417;16.484;102.872;2022-07-17T02:20:44;14.20;;;10.77;;
18574;SDS011;9417;16.484;102.872;2022-07-17T02:22:53;12.05;;;10.00;;
18574;SDS011;9417;16.484;102.872;2022-07-17T02:25:00;12.75;;;9.55;;
18574;SDS011;9417;16.484;102.872;2022-07-17T02:27:08;12.32;;;9.50;;
18574;SDS011;9417;16.484;102.872;2022-07-17T02:29:17;11.85;;;9.68;;
18574;SDS011;9417;16.484;102.872;2022-07-17T02:31:25;11.25;;;10.02;;
18574;SDS011;9417;16.484;102.872;2022-07-17T02:33:33;17.55;;;10.13;;
18574;SDS011;9417;16.484;102.872;2022-07-17T02:35:40;10.80;;;9.25;;
18574;SDS011;9417;16.484;102.872;2022-07-17T02:37:47;15.10;;;11.27;;
18574;SDS011;9417;16.484;102.872;2022-07-17T02:39:55;12.82;;;10.25;;
18574;SDS011;9417;16.484;102.872;2022-07-17T02:42:03;12.07;;;9.35;;
18574;SDS011;9417;16.484;102.872;2022-07-17T02:44:10;10.68;;;8.95;;
18574;SDS011;9417;16.484;102.872;2022-07-17T02:46:19;13.35;;;10.07;;
18574;SDS011;9417;16.484;102.872;2022-07-17T02:48:27;11.57;;;9.20;;
18574;SDS011;9417;16.484;102.872;2022-07-17T02:50:34;10.95;;;9.73;;
18574;SDS011;9417;16.484;102.872;2022-07-17T02:52:42;12.48;;;9.30;;
18574;SDS011;9417;16.484;102.872;2022-07-17T02:54:49;11.77;;;9.70;;
18574;SDS011;9417;16.484;102.872;2022-07-17T02:56:56;11.70;;;8.90;;
18574;SDS011;9417;16.484;102.872;2022-07-17T02:59:04;11.82;;;8.80;;
18574;SDS011;9417;16.484;102.872;2022-07-17T03:01:11;12.68;;;8.60;;
18574;SDS011;9417;16.484;102.872;2022-07-17T03:03:21;12.45;;;8.85;;
18574;SDS011;9417;16.484;102.872;2022-07-17T03:05:29;10.05;;;8.32;;
18574;SDS011;9417;16.484;102.872;2022-07-17T03:07:36;13.63;;;9.32;;
18574;SDS011;9417;16.484;102.872;2022-07-17T03:09:43;10.95;;;9.60;;
18574;SDS011;9417;16.484;102.872;2022-07-17T03:11:51;10.48;;;8.93;;
18574;SDS011;9417;16.484;102.872;2022-07-17T03:13:58;11.30;;;8.73;;
18574;SDS011;9417;16.484;102.872;2022-07-17T03:16:06;11.68;;;8.50;;
18574;SDS011;9417;16.484;102.872;2022-07-17T03:18:14;9.07;;;7.97;;
18574;SDS011;9417;16.484;102.872;2022-07-17T03:20:23;11.38;;;8.23;;
18574;SDS011;9417;16.484;102.872;2022-07-17T03:22:30;10.82;;;8.32;;
18574;SDS011;9417;16.484;102.872;2022-07-17T03:24:38;10.25;;;8.25;;
18574;SDS011;9417;16.484;102.872;2022-07-17T03:26:45;11.60;;;8.30;;
18574;SDS011;9417;16.484;102.872;2022-07-17T03:28:52;10.48;;;7.20;;
18574;SDS011;9417;16.484;102.872;2022-07-17T03:30:59;10.25;;;7.65;;
18574;SDS011;9417;16.484;102.872;2022-07-17T03:33:07;9.48;;;7.07;;
18574;SDS011;9417;16.484;102.872;2022-07-17T03:35:14;8.50;;;6.68;;
18574;SDS011;9417;16.484;102.872;2022-07-17T03:37:24;10.80;;;7.47;;
18574;SDS011;9417;16.484;102.872;2022-07-17T03:39:31;12.02;;;7.15;;
18574;SDS011;9417;16.484;102.872;2022-07-17T03:41:38;8.75;;;7.05;;
18574;SDS011;9417;16.484;102.872;2022-07-17T03:43:46;10.55;;;6.78;;
18574;SDS011;9417;16.484;102.872;2022-07-17T03:45:55;11.13;;;7.63;;
18574;SDS011;9417;16.484;102.872;2022-07-17T03:48:02;11.73;;;7.70;;
18574;SDS011;9417;16.484;102.872;2022-07-17T03:50:10;11.18;;;7.68;;
18574;SDS011;9417;16.484;102.872;2022-07-17T03:52:17;11.07;;;8.32;;
18574;SDS011;9417;16.484;102.872;2022-07-17T03:54:26;9.88;;;7.53;;
18574;SDS011;9417;16.484;102.872;2022-07-17T03:56:34;10.57;;;8.07;;
18574;SDS011;9417;16.484;102.872;2022-07-17T03:58:41;9.88;;;8.45;;
18574;SDS011;9417;16.484;102.872;2022-07-17T04:00:49;11.20;;;8.40;;
18574;SDS011;9417;16.484;102.872;2022-07-17T04:02:56;10.30;;;8.20;;
18574;SDS011;9417;16.484;102.872;2022-07-17T04:05:04;11.45;;;7.78;;
18574;SDS011;9417;16.484;102.872;2022-07-17T04:07:12;11.63;;;7.55;;
18574;SDS011;9417;16.484;102.872;2022-07-17T04:09:33;11.32;;;7.80;;
18574;SDS011;9417;16.484;102.872;2022-07-17T04:11:40;9.65;;;8.10;;
18574;SDS011;9417;16.484;102.872;2022-07-17T04:13:48;11.25;;;8.52;;
18574;SDS011;9417;16.484;102.872;2022-07-17T04:15:55;10.43;;;7.50;;
18574;SDS011;9417;16.484;102.872;2022-07-17T04:18:03;9.82;;;7.63;;
18574;SDS011;9417;16.484;102.872;2022-07-17T04:20:11;9.98;;;8.82;;
18574;SDS011;9417;16.484;102.872;2022-07-17T04:22:18;9.05;;;8.05;;
18574;SDS011;9417;16.484;102.872;2022-07-17T04:24:25;10.43;;;8.05;;
18574;SDS011;9417;16.484;102.872;2022-07-17T04:26:34;9.85;;;8.13;;
18574;SDS011;9417;16.484;102.872;2022-07-17T04:28:42;12.60;;;8.35;;
18574;SDS011;9417;16.484;102.872;2022-07-17T04:30:50;11.23;;;7.93;;
18574;SDS011;9417;16.484;102.872;2022-07-17T04:32:57;11.00;;;8.73;;
18574;SDS011;9417;16.484;102.872;2022-07-17T04:35:05;15.85;;;8.38;;
18574;SDS011;9417;16.484;102.872;2022-07-17T04:37:13;10.32;;;8.45;;
18574;SDS011;9417;16.484;102.872;2022-07-17T04:39:20;11.43;;;7.85;;
18574;SDS011;9417;16.484;102.872;2022-07-17T04:41:28;9.27;;;7.80;;
18574;SDS011;9417;16.484;102.872;2022-07-17T04:43:37;10.32;;;7.88;;
18574;SDS011;9417;16.484;102.872;2022-07-17T04:45:44;11.05;;;8.23;;
18574;SDS011;9417;16.484;102.872;2022-07-17T04:47:52;9.48;;;8.57;;
18574;SDS011;9417;16.484;102.872;2022-07-17T04:49:59;10.20;;;7.72;;
18574;SDS011;9417;16.484;102.872;2022-07-17T04:52:07;8.50;;;7.53;;
18574;SDS011;9417;16.484;102.872;2022-07-17T04:54:14;10.00;;;8.27;;
18574;SDS011;9417;16.484;102.872;2022-07-17T04:56:21;10.65;;;7.80;;
18574;SDS011;9417;16.484;102.872;2022-07-17T04:58:29;11.18;;;7.93;;
18574;SDS011;9417;16.484;102.872;2022-07-17T05:00:38;11.85;;;7.88;;
18574;SDS011;9417;16.484;102.872;2022-07-17T05:02:45;9.82;;;7.65;;
18574;SDS011;9417;16.484;102.872;2022-07-17T05:04:53;10.43;;;7.63;;
18574;SDS011;9417;16.484;102.872;2022-07-17T05:07:00;10.15;;;7.60;;
18574;SDS011;9417;16.484;102.872;2022-07-17T05:09:08;9.75;;;7.82;;
18574;SDS011;9417;16.484;102.872;2022-07-17T05:11:15;11.25;;;8.20;;
18574;SDS011;9417;16.484;102.872;2022-07-17T05:13:23;9.20;;;7.97;;
18574;SDS011;9417;16.484;102.872;2022-07-17T05:15:31;9.85;;;8.23;;
18574;SDS011;9417;16.484;102.872;2022-07-17T05:19:50;10.25;;;8.00;;
18574;SDS011;9417;16.484;102.872;2022-07-17T05:21:58;10.23;;;7.95;;
18574;SDS011;9417;16.484;102.872;2022-07-17T05:24:05;12.65;;;8.05;;
18574;SDS011;9417;16.484;102.872;2022-07-17T05:26:12;8.60;;;7.70;;
18574;SDS011;9417;16.484;102.872;2022-07-17T05:28:20;8.27;;;7.30;;
18574;SDS011;9417;16.484;102.872;2022-07-17T05:30:27;8.30;;;7.43;;
18574;SDS011;9417;16.484;102.872;2022-07-17T05:32:35;11.18;;;7.50;;
18574;SDS011;9417;16.484;102.872;2022-07-17T05:34:44;9.00;;;7.88;;
18574;SDS011;9417;16.484;102.872;2022-07-17T05:36:51;10.02;;;7.60;;
18574;SDS011;9417;16.484;102.872;2022-07-17T05:38:59;8.80;;;7.55;;
18574;SDS011;9417;16.484;102.872;2022-07-17T05:41:06;9.77;;;7.45;;
18574;SDS011;9417;16.484;102.872;2022-07-17T05:43:14;12.95;;;7.95;;
18574;SDS011;9417;16.484;102.872;2022-07-17T05:45:21;10.77;;;8.07;;
18574;SDS011;9417;16.484;102.872;2022-07-17T05:47:28;9.85;;;7.88;;
18574;SDS011;9417;16.484;102.872;2022-07-17T05:49:36;11.13;;;7.55;;
18574;SDS011;9417;16.484;102.872;2022-07-17T05:51:45;12.75;;;7.53;;
18574;SDS011;9417;16.484;102.872;2022-07-17T05:53:53;9.13;;;7.82;;
18574;SDS011;9417;16.484;102.872;2022-07-17T05:56:00;10.68;;;7.75;;
18574;SDS011;9417;16.484;102.872;2022-07-17T05:58:08;8.90;;;7.43;;
18574;SDS011;9417;16.484;102.872;2022-07-17T06:00:15;9.00;;;7.60;;
18574;SDS011;9417;16.484;102.872;2022-07-17T06:02:23;8.32;;;7.43;;
18574;SDS011;9417;16.484;102.872;2022-07-17T06:04:30;9.32;;;7.95;;
18574;SDS011;9417;16.484;102.872;2022-07-17T06:06:38;9.68;;;8.68;;
18574;SDS011;9417;16.484;102.872;2022-07-17T06:08:47;8.50;;;7.55;;
18574;SDS011;9417;16.484;102.872;2022-07-17T06:10:54;8.95;;;7.80;;
18574;SDS011;9417;16.484;102.872;2022-07-17T06:13:01;8.88;;;7.60;;
18574;SDS011;9417;16.484;102.872;2022-07-17T06:15:10;8.77;;;7.53;;
18574;SDS011;9417;16.484;102.872;2022-07-17T06:17:17;7.85;;;7.05;;
18574;SDS011;9417;16.484;102.872;2022-07-17T06:19:24;7.85;;;7.03;;
18574;SDS011;9417;16.484;102.872;2022-07-17T06:21:32;8.25;;;7.15;;
18574;SDS011;9417;16.484;102.872;2022-07-17T06:23:39;8.52;;;7.28;;
18574;SDS011;9417;16.484;102.872;2022-07-17T06:25:48;8.27;;;7.07;;
18574;SDS011;9417;16.484;102.872;2022-07-17T06:27:55;10.40;;;7.70;;
18574;SDS011;9417;16.484;102.872;2022-07-17T06:30:03;11.00;;;7.20;;
18574;SDS011;9417;16.484;102.872;2022-07-17T06:32:11;12.15;;;7.03;;
18574;SDS011;9417;16.484;102.872;2022-07-17T06:34:19;7.75;;;6.95;;
18574;SDS011;9417;16.484;102.872;2022-07-17T06:36:26;8.77;;;7.32;;
18574;SDS011;9417;16.484;102.872;2022-07-17T06:38:33;7.85;;;7.07;;
18574;SDS011;9417;16.484;102.872;2022-07-17T06:40:40;7.20;;;6.53;;
18574;SDS011;9417;16.484;102.872;2022-07-17T06:42:50;9.38;;;7.20;;
18574;SDS011;9417;16.484;102.872;2022-07-17T06:44:57;9.20;;;6.93;;
18574;SDS011;9417;16.484;102.872;2022-07-17T06:47:04;7.65;;;6.50;;
18574;SDS011;9417;16.484;102.872;2022-07-17T06:49:12;7.22;;;6.53;;
18574;SDS011;9417;16.484;102.872;2022-07-17T06:51:19;8.30;;;6.22;;
18574;SDS011;9417;16.484;102.872;2022-07-17T06:53:27;7.65;;;6.55;;
18574;SDS011;9417;16.484;102.872;2022-07-17T06:55:34;7.88;;;7.07;;
18574;SDS011;9417;16.484;102.872;2022-07-17T06:57:42;9.52;;;7.30;;
18574;SDS011;9417;16.484;102.872;2022-07-17T06:59:51;9.15;;;7.97;;
18574;SDS011;9417;16.484;102.872;2022-07-17T07:01:58;9.20;;;7.50;;
18574;SDS011;9417;16.484;102.872;2022-07-17T07:04:05;7.78;;;6.97;;
18574;SDS011;9417;16.484;102.872;2022-07-17T07:06:13;8.32;;;7.30;;
18574;SDS011;9417;16.484;102.872;2022-07-17T07:08:20;7.90;;;6.35;;
18574;SDS011;9417;16.484;102.872;2022-07-17T07:10:27;8.68;;;6.63;;
18574;SDS011;9417;16.484;102.872;2022-07-17T07:12:35;6.72;;;6.13;;
18574;SDS011;9417;16.484;102.872;2022-07-17T07:14:42;8.45;;;7.38;;
18574;SDS011;9417;16.484;102.872;2022-07-17T07:16:51;7.70;;;6.82;;
18574;SDS011;9417;16.484;102.872;2022-07-17T07:18:59;9.10;;;6.30;;
18574;SDS011;9417;16.484;102.872;2022-07-17T07:21:07;8.18;;;7.03;;
18574;SDS011;9417;16.484;102.872;2022-07-17T07:23:14;8.85;;;7.00;;
18574;SDS011;9417;16.484;102.872;2022-07-17T07:25:22;8.80;;;7.20;;
18574;SDS011;9417;16.484;102.872;2022-07-17T07:27:29;9.38;;;6.85;;
18574;SDS011;9417;16.484;102.872;2022-07-17T07:29:37;11.32;;;6.55;;
18574;SDS011;9417;16.484;102.872;2022-07-17T07:31:44;9.63;;;7.20;;
18574;SDS011;9417;16.484;102.872;2022-07-17T07:33:53;7.75;;;6.82;;
18574;SDS011;9417;16.484;102.872;2022-07-17T07:36:00;9.10;;;6.75;;
18574;SDS011;9417;16.484;102.872;2022-07-17T07:38:07;7.63;;;6.88;;
18574;SDS011;9417;16.484;102.872;2022-07-17T07:40:15;9.18;;;6.70;;
18574;SDS011;9417;16.484;102.872;2022-07-17T07:42:22;7.25;;;6.53;;
18574;SDS011;9417;16.484;102.872;2022-07-17T07:44:29;10.85;;;6.75;;
18574;SDS011;9417;16.484;102.872;2022-07-17T07:46:37;9.32;;;7.28;;
18574;SDS011;9417;16.484;102.872;2022-07-17T07:48:45;8.60;;;7.25;;
18574;SDS011;9417;16.484;102.872;2022-07-17T07:50:54;8.48;;;6.70;;
18574;SDS011;9417;16.484;102.872;2022-07-17T07:53:01;8.25;;;6.55;;
18574;SDS011;9417;16.484;102.872;2022-07-17T07:55:09;8.40;;;6.43;;
18574;SDS011;9417;16.484;102.872;2022-07-17T07:57:23;11.25;;;7.07;;
18574;SDS011;9417;16.484;102.872;2022-07-17T07:59:30;7.97;;;7.13;;
18574;SDS011;9417;16.484;102.872;2022-07-17T08:01:38;8.48;;;6.82;;
18574;SDS011;9417;16.484;102.872;2022-07-17T08:03:45;10.50;;;7.97;;
18574;SDS011;9417;16.484;102.872;2022-07-17T08:05:54;8.15;;;7.35;;
18574;SDS011;9417;16.484;102.872;2022-07-17T08:08:02;8.65;;;7.15;;
18574;SDS011;9417;16.484;102.872;2022-07-17T08:10:09;10.43;;;7.28;;
18574;SDS011;9417;16.484;102.872;2022-07-17T08:12:17;10.93;;;7.70;;
18574;SDS011;9417;16.484;102.872;2022-07-17T08:14:44;8.32;;;7.30;;
18574;SDS011;9417;16.484;102.872;2022-07-17T08:16:52;7.85;;;7.05;;
18574;SDS011;9417;16.484;102.872;2022-07-17T08:19:00;8.00;;;7.15;;
18574;SDS011;9417;16.484;102.872;2022-07-17T08:21:09;8.60;;;7.50;;
18574;SDS011;9417;16.484;102.872;2022-07-17T08:23:17;9.50;;;7.35;;
18574;SDS011;9417;16.484;102.872;2022-07-17T08:25:24;10.05;;;9.05;;
18574;SDS011;9417;16.484;102.872;2022-07-17T08:27:34;11.13;;;6.65;;
18574;SDS011;9417;16.484;102.872;2022-07-17T08:29:44;6.40;;;5.78;;
18574;SDS011;9417;16.484;102.872;2022-07-17T08:32:03;8.85;;;5.40;;
18574;SDS011;9417;16.484;102.872;2022-07-17T08:34:11;7.43;;;5.60;;
18574;SDS011;9417;16.484;102.872;2022-07-17T08:36:21;7.30;;;5.45;;
18574;SDS011;9417;16.484;102.872;2022-07-17T08:38:29;7.43;;;5.72;;
18574;SDS011;9417;16.484;102.872;2022-07-17T08:40:37;7.03;;;5.15;;
18574;SDS011;9417;16.484;102.872;2022-07-17T08:42:47;6.82;;;5.18;;
18574;SDS011;9417;16.484;102.872;2022-07-17T08:44:55;5.60;;;5.03;;
18574;SDS011;9417;16.484;102.872;2022-07-17T08:47:01;6.95;;;5.35;;
18574;SDS011;9417;16.484;102.872;2022-07-17T08:49:11;6.38;;;5.45;;
18574;SDS011;9417;16.484;102.872;2022-07-17T08:51:21;6.95;;;5.40;;
18574;SDS011;9417;16.484;102.872;2022-07-17T08:53:30;7.53;;;5.43;;
18574;SDS011;9417;16.484;102.872;2022-07-17T08:55:37;6.53;;;4.90;;
18574;SDS011;9417;16.484;102.872;2022-07-17T08:57:45;6.32;;;5.60;;
18574;SDS011;9417;16.484;102.872;2022-07-17T08:59:53;6.63;;;5.18;;
18574;SDS011;9417;16.484;102.872;2022-07-17T09:02:00;7.18;;;5.22;;
18574;SDS011;9417;16.484;102.872;2022-07-17T09:04:08;7.45;;;5.40;;
18574;SDS011;9417;16.484;102.872;2022-07-17T09:06:19;7.30;;;5.20;;
18574;SDS011;9417;16.484;102.872;2022-07-17T09:08:28;8.18;;;5.03;;
18574;SDS011;9417;16.484;102.872;2022-07-17T09:10:37;7.72;;;5.78;;
18574;SDS011;9417;16.484;102.872;2022-07-17T09:12:47;5.60;;;5.00;;
18574;SDS011;9417;16.484;102.872;2022-07-17T09:14:54;5.40;;;4.90;;
18574;SDS011;9417;16.484;102.872;2022-07-17T09:17:03;6.72;;;4.63;;
18574;SDS011;9417;16.484;102.872;2022-07-17T09:19:11;5.55;;;5.05;;
18574;SDS011;9417;16.484;102.872;2022-07-17T09:21:30;6.85;;;4.95;;
18574;SDS011;9417;16.484;102.872;2022-07-17T09:23:37;6.68;;;5.25;;
18574;SDS011;9417;16.484;102.872;2022-07-17T09:25:45;6.43;;;4.30;;
18574;SDS011;9417;16.484;102.872;2022-07-17T09:27:53;5.10;;;4.30;;
18574;SDS011;9417;16.484;102.872;2022-07-17T09:30:03;5.70;;;4.28;;
18574;SDS011;9417;16.484;102.872;2022-07-17T09:32:16;5.32;;;4.50;;
18574;SDS011;9417;16.484;102.872;2022-07-17T09:34:24;6.07;;;3.83;;
18574;SDS011;9417;16.484;102.872;2022-07-17T09:36:33;3.92;;;3.50;;
18574;SDS011;9417;16.484;102.872;2022-07-17T09:38:40;4.22;;;3.60;;
18574;SDS011;9417;16.484;102.872;2022-07-17T09:40:48;5.13;;;3.78;;
18574;SDS011;9417;16.484;102.872;2022-07-17T09:43:19;4.35;;;3.20;;
18574;SDS011;9417;16.484;102.872;2022-07-17T09:45:26;5.75;;;3.75;;
18574;SDS011;9417;16.484;102.872;2022-07-17T09:47:35;7.93;;;4.15;;
18574;SDS011;9417;16.484;102.872;2022-07-17T09:49:43;6.78;;;4.60;;
18574;SDS011;9417;16.484;102.872;2022-07-17T09:51:53;10.23;;;7.13;;
18574;SDS011;9417;16.484;102.872;2022-07-17T09:54:01;6.60;;;4.65;;
18574;SDS011;9417;16.484;102.872;2022-07-17T09:56:10;9.32;;;4.65;;
18574;SDS011;9417;16.484;102.872;2022-07-17T09:58:20;5.63;;;3.83;;
18574;SDS011;9417;16.484;102.872;2022-07-17T10:00:29;3.83;;;3.30;;
18574;SDS011;9417;16.484;102.872;2022-07-17T10:02:36;4.30;;;3.80;;
18574;SDS011;9417;16.484;102.872;2022-07-17T10:04:46;5.88;;;3.85;;
18574;SDS011;9417;16.484;102.872;2022-07-17T10:06:56;3.88;;;3.38;;
18574;SDS011;9417;16.484;102.872;2022-07-17T10:09:04;9.25;;;5.05;;
18574;SDS011;9417;16.484;102.872;2022-07-17T10:11:12;7.68;;;4.28;;
18574;SDS011;9417;16.484;102.872;2022-07-17T10:13:20;5.38;;;4.50;;
18574;SDS011;9417;16.484;102.872;2022-07-17T10:15:27;6.97;;;4.00;;
18574;SDS011;9417;16.484;102.872;2022-07-17T10:17:35;7.65;;;5.03;;
18574;SDS011;9417;16.484;102.872;2022-07-17T10:19:48;6.30;;;3.95;;
18574;SDS011;9417;16.484;102.872;2022-07-17T10:21:59;8.05;;;4.30;;
18574;SDS011;9417;16.484;102.872;2022-07-17T10:24:10;4.75;;;3.50;;
18574;SDS011;9417;16.484;102.872;2022-07-17T10:26:19;5.70;;;3.60;;
18574;SDS011;9417;16.484;102.872;2022-07-17T10:28:40;5.38;;;3.25;;
18574;SDS011;9417;16.484;102.872;2022-07-17T10:30:49;3.90;;;3.20;;
18574;SDS011;9417;16.484;102.872;2022-07-17T10:32:57;6.63;;;3.40;;
18574;SDS011;9417;16.484;102.872;2022-07-17T10:35:06;5.18;;;3.65;;
18574;SDS011;9417;16.484;102.872;2022-07-17T10:37:17;6.00;;;3.80;;
18574;SDS011;9417;16.484;102.872;2022-07-17T10:39:25;5.47;;;3.40;;
18574;SDS011;9417;16.484;102.872;2022-07-17T10:41:36;5.47;;;3.13;;
18574;SDS011;9417;16.484;102.872;2022-07-17T10:43:44;5.50;;;3.30;;
18574;SDS011;9417;16.484;102.872;2022-07-17T10:45:54;6.35;;;3.35;;
18574;SDS011;9417;16.484;102.872;2022-07-17T10:48:02;5.35;;;4.10;;
18574;SDS011;9417;16.484;102.872;2022-07-17T10:50:11;6.60;;;4.15;;
18574;SDS011;9417;16.484;102.872;2022-07-17T10:52:20;8.25;;;4.13;;
18574;SDS011;9417;16.484;102.872;2022-07-17T10:54:32;6.50;;;3.90;;
18574;SDS011;9417;16.484;102.872;2022-07-17T10:56:41;10.63;;;3.95;;
18574;SDS011;9417;16.484;102.872;2022-07-17T10:58:50;11.40;;;4.43;;
18574;SDS011;9417;16.484;102.872;2022-07-17T11:01:04;9.70;;;4.50;;
18574;SDS011;9417;16.484;102.872;2022-07-17T11:03:14;6.20;;;3.50;;
18574;SDS011;9417;16.484;102.872;2022-07-17T11:05:21;9.65;;;4.53;;
18574;SDS011;9417;16.484;102.872;2022-07-17T11:07:31;6.10;;;4.38;;
18574;SDS011;9417;16.484;102.872;2022-07-17T11:09:46;8.48;;;4.80;;
18574;SDS011;9417;16.484;102.872;2022-07-17T11:11:54;8.68;;;4.90;;
18574;SDS011;9417;16.484;102.872;2022-07-17T11:14:10;9.82;;;4.60;;
18574;SDS011;9417;16.484;102.872;2022-07-17T11:16:27;5.15;;;3.65;;
18574;SDS011;9417;16.484;102.872;2022-07-17T11:18:36;6.97;;;4.22;;
18574;SDS011;9417;16.484;102.872;2022-07-17T11:20:51;4.93;;;3.25;;
18574;SDS011;9417;16.484;102.872;2022-07-17T11:23:01;8.27;;;4.40;;
18574;SDS011;9417;16.484;102.872;2022-07-17T11:25:09;7.97;;;3.53;;
18574;SDS011;9417;16.484;102.872;2022-07-17T11:27:18;7.05;;;3.70;;
18574;SDS011;9417;16.484;102.872;2022-07-17T11:29:27;9.13;;;3.63;;
18574;SDS011;9417;16.484;102.872;2022-07-17T11:31:34;5.38;;;3.30;;
18574;SDS011;9417;16.484;102.872;2022-07-17T11:33:45;6.60;;;3.70;;
18574;SDS011;9417;16.484;102.872;2022-07-17T11:35:54;3.85;;;3.08;;
18574;SDS011;9417;16.484;102.872;2022-07-17T11:38:03;6.55;;;3.33;;
18574;SDS011;9417;16.484;102.872;2022-07-17T11:40:11;6.57;;;4.05;;
18574;SDS011;9417;16.484;102.872;2022-07-17T11:42:19;8.32;;;4.25;;
18574;SDS011;9417;16.484;102.872;2022-07-17T11:44:27;7.20;;;4.22;;
18574;SDS011;9417;16.484;102.872;2022-07-17T11:46:34;6.22;;;3.95;;
18574;SDS011;9417;16.484;102.872;2022-07-17T11:48:43;5.68;;;4.00;;
18574;SDS011;9417;16.484;102.872;2022-07-17T11:50:55;8.43;;;4.30;;
18574;SDS011;9417;16.484;102.872;2022-07-17T11:53:04;5.20;;;3.70;;
18574;SDS011;9417;16.484;102.872;2022-07-17T11:55:12;6.15;;;3.20;;
18574;SDS011;9417;16.484;102.872;2022-07-17T11:57:19;6.50;;;3.55;;
18574;SDS011;9417;16.484;102.872;2022-07-17T11:59:28;6.63;;;3.15;;
18574;SDS011;9417;16.484;102.872;2022-07-17T12:01:40;4.10;;;3.30;;
18574;SDS011;9417;16.484;102.872;2022-07-17T12:03:56;4.78;;;3.50;;
18574;SDS011;9417;16.484;102.872;2022-07-17T12:06:04;4.38;;;3.38;;
18574;SDS011;9417;16.484;102.872;2022-07-17T12:08:17;9.38;;;3.40;;
18574;SDS011;9417;16.484;102.872;2022-07-17T12:10:26;4.28;;;3.72;;
18574;SDS011;9417;16.484;102.872;2022-07-17T12:12:36;5.32;;;3.58;;
18574;SDS011;9417;16.484;102.872;2022-07-17T12:14:46;4.18;;;3.22;;
18574;SDS011;9417;16.484;102.872;2022-07-17T12:16:56;5.47;;;3.33;;
18574;SDS011;9417;16.484;102.872;2022-07-17T12:19:08;7.57;;;4.20;;
18574;SDS011;9417;16.484;102.872;2022-07-17T12:21:18;4.55;;;3.42;;
18574;SDS011;9417;16.484;102.872;2022-07-17T12:23:28;4.30;;;3.47;;
18574;SDS011;9417;16.484;102.872;2022-07-17T12:25:36;6.40;;;4.25;;
18574;SDS011;9417;16.484;102.872;2022-07-17T12:27:43;7.10;;;4.55;;
18574;SDS011;9417;16.484;102.872;2022-07-17T12:29:51;7.72;;;5.00;;
18574;SDS011;9417;16.484;102.872;2022-07-17T12:32:02;6.15;;;4.95;;
18574;SDS011;9417;16.484;102.872;2022-07-17T12:34:11;8.15;;;5.82;;
18574;SDS011;9417;16.484;102.872;2022-07-17T12:36:18;7.13;;;4.57;;
18574;SDS011;9417;16.484;102.872;2022-07-17T12:38:28;9.40;;;6.00;;
18574;SDS011;9417;16.484;102.872;2022-07-17T12:40:35;8.02;;;5.90;;